createdAt,value
2022-12-26T00:00:23.766Z,98539.84
2022-12-26T00:02:25.460Z,98536.28
2022-12-26T00:04:48.891Z,98542.06
2022-12-26T00:06:52.215Z,98540.97
2022-12-26T00:08:55.083Z,98540.69
2022-12-26T00:10:56.674Z,98540.44
2022-12-26T00:13:37.224Z,98545.66
2022-12-26T00:15:20.047Z,98544.81
2022-12-26T00:17:24.482Z,98547.28
2022-12-26T00:19:27.415Z,98547.88
2022-12-26T00:21:29.668Z,98543.75
2022-12-26T00:23:33.123Z,98546.22
2022-12-26T00:25:34.776Z,98542.63
2022-12-26T00:27:36.468Z,98553.56
2022-12-26T00:29:38.439Z,98551.94
2022-12-26T00:31:40.088Z,98549.78
2022-12-26T00:33:44.481Z,98545.38
2022-12-26T00:35:46.246Z,98535.28
2022-12-26T00:37:47.926Z,98530.88
2022-12-26T00:39:49.612Z,98544.81
2022-12-26T00:41:54.131Z,98543.75
2022-12-26T00:43:56.284Z,98544.81
2022-12-26T00:46:02.428Z,98537.69
2022-12-26T00:48:04.144Z,98536.06
2022-12-26T00:50:13.483Z,98532.22
2022-12-26T00:52:16.684Z,98529.78
2022-12-26T00:54:18.355Z,98520.97
2022-12-26T00:56:19.977Z,98522.59
2022-12-26T00:58:22.289Z,98521.53
2022-12-26T01:00:24.185Z,98519.63
2022-12-26T01:02:40.876Z,98522.06
2022-12-26T01:04:45.345Z,98528.88
2022-12-26T01:06:46.967Z,98532.13
2022-12-26T01:08:49.034Z,98532.66
2022-12-26T01:10:51.142Z,98522.81
2022-12-26T01:12:52.820Z,98523.88
2022-12-26T01:14:59.729Z,98531.28
2022-12-26T01:17:01.391Z,98537.31
2022-12-26T01:19:03.080Z,98543.06
2022-12-26T01:21:13.595Z,98540.88
2022-12-26T01:23:15.732Z,98550.13
2022-12-26T01:25:17.483Z,98550.13
2022-12-26T01:27:19.059Z,98556.94
2022-12-26T01:29:22.905Z,98557.22
2022-12-26T01:31:24.751Z,98558.03
2022-12-26T01:33:26.279Z,98537.28
2022-12-26T01:35:27.907Z,98527.16
2022-12-26T01:37:29.843Z,98526.59
2022-12-26T01:39:31.321Z,98536.13
2022-12-26T01:41:33.268Z,98523.00
2022-12-26T01:43:55.924Z,98524.59
2022-12-26T01:45:58.258Z,98532.56
2022-12-26T01:48:06.057Z,98545.63
2022-12-26T01:50:18.150Z,98544.00
2022-12-26T01:52:45.985Z,98547.28
2022-12-26T01:54:53.342Z,98544.03
2022-12-26T01:56:55.032Z,98550.63
2022-12-26T01:59:06.286Z,98547.28
2022-12-26T02:01:09.773Z,98538.81
2022-12-26T02:03:30.966Z,98530.63
2022-12-26T02:05:35.764Z,98531.44
2022-12-26T02:07:41.247Z,98524.41
2022-12-26T02:09:43.202Z,98516.19
2022-12-26T02:12:33.730Z,98522.22
2022-12-26T02:14:22.953Z,98521.69
2022-12-26T02:16:25.736Z,98512.41
2022-12-26T02:18:27.361Z,98505.88
2022-12-26T02:20:38.791Z,98508.59
2022-12-26T02:23:16.337Z,98508.59
2022-12-26T02:25:48.195Z,98508.84
2022-12-26T02:28:37.597Z,98512.16
2022-12-26T02:30:56.340Z,98512.72
2022-12-26T02:33:18.468Z,98516.28
2022-12-26T02:35:27.896Z,98510.53
2022-12-26T02:38:00.475Z,98519.28
2022-12-26T02:40:28.230Z,98508.13
2022-12-26T02:42:44.401Z,98514.97
2022-12-26T02:45:12.866Z,98506.75
2022-12-26T02:47:44.680Z,98504.03
2022-12-26T02:50:42.897Z,98492.28
2022-12-26T02:53:23.818Z,98487.63
2022-12-26T02:55:47.935Z,98501.56
2022-12-26T02:58:17.775Z,98507.03
2022-12-26T03:00:40.302Z,98507.03
2022-12-26T03:03:08.131Z,98515.25
2022-12-26T03:05:38.462Z,98518.53
2022-12-26T03:08:15.507Z,98526.22
2022-12-26T03:10:43.689Z,98532.50
2022-12-26T03:13:12.094Z,98522.94
2022-12-26T03:15:17.271Z,98532.53
2022-12-26T03:17:33.775Z,98520.53
2022-12-26T03:19:58.382Z,98520.56
2022-12-26T03:22:02.143Z,98529.31
2022-12-26T03:24:04.745Z,98524.41
2022-12-26T03:26:31.175Z,98536.72
2022-12-26T03:28:33.261Z,98523.34
2022-12-26T03:30:50.698Z,98525.25
2022-12-26T03:32:54.833Z,98523.06
2022-12-26T03:34:56.406Z,98527.47
2022-12-26T03:37:47.688Z,98530.19
2022-12-26T03:40:46.837Z,98531.81
2022-12-26T03:43:20.283Z,98538.13
2022-12-26T03:46:01.414Z,98529.13
2022-12-26T03:48:36.873Z,98549.94
2022-12-26T03:51:03.205Z,98537.09
2022-12-26T03:53:38.677Z,98536.81
2022-12-26T03:56:05.363Z,98534.09
2022-12-26T03:58:42.766Z,98536.31
2022-12-26T04:01:07.211Z,98558.19
2022-12-26T04:03:31.696Z,98546.97
2022-12-26T04:05:56.674Z,98547.81
2022-12-26T04:08:26.478Z,98550.84
2022-12-26T04:10:54.605Z,98550.00
2022-12-26T04:13:19.468Z,98548.91
2022-12-26T04:16:03.846Z,98531.41
2022-12-26T04:18:33.793Z,98538.25
2022-12-26T04:20:46.653Z,98537.97
2022-12-26T04:23:16.593Z,98534.44
2022-12-26T04:25:51.762Z,98550.56
2022-12-26T04:28:12.100Z,98548.13
2022-12-26T04:30:32.958Z,98542.13
2022-12-26T04:33:02.519Z,98543.22
2022-12-26T04:35:30.925Z,98546.53
2022-12-26T04:37:53.463Z,98539.97
2022-12-26T04:40:15.539Z,98543.53
2022-12-26T04:42:38.424Z,98547.91
2022-12-26T04:44:40.919Z,98540.81
2022-12-26T04:46:46.188Z,98535.66
2022-12-26T04:49:12.341Z,98541.94
2022-12-26T04:51:13.876Z,98539.22
2022-12-26T04:53:15.637Z,98532.38
2022-12-26T04:55:18.088Z,98535.94
2022-12-26T04:57:19.817Z,98530.44
2022-12-26T04:59:27.376Z,98527.94
2022-12-26T05:01:47.731Z,98523.31
2022-12-26T05:04:08.285Z,98518.09
2022-12-26T05:06:28.507Z,98519.19
2022-12-26T05:08:57.887Z,98504.94
2022-12-26T05:11:00.947Z,98492.09
2022-12-26T05:13:02.441Z,98497.28
2022-12-26T05:15:04.578Z,98503.88
2022-12-26T05:17:26.270Z,98500.84
2022-12-26T05:19:46.629Z,98503.88
2022-12-26T05:22:07.164Z,98502.22
2022-12-26T05:24:30.618Z,98506.84
2022-12-26T05:26:52.126Z,98516.16
2022-12-26T05:29:00.445Z,98509.03
2022-12-26T05:31:03.352Z,98509.88
2022-12-26T05:33:23.872Z,98516.16
2022-12-26T05:35:26.496Z,98531.47
2022-12-26T05:37:32.354Z,98526.31
2022-12-26T05:39:33.929Z,98517.28
2022-12-26T05:41:36.962Z,98514.25
2022-12-26T05:43:39.132Z,98526.31
2022-12-26T05:45:40.843Z,98513.47
2022-12-26T05:47:47.010Z,98527.13
2022-12-26T05:49:51.776Z,98526.88
2022-12-26T05:51:53.909Z,98523.06
2022-12-26T05:53:55.436Z,98526.88
2022-12-26T05:56:04.726Z,98526.06
2022-12-26T05:58:06.484Z,98529.94
2022-12-26T06:00:08.671Z,98540.59
2022-12-26T06:02:10.617Z,98537.56
2022-12-26T06:04:12.253Z,98536.50
2022-12-26T06:06:14.333Z,98538.94
2022-12-26T06:08:15.903Z,98538.69
2022-12-26T06:10:21.313Z,98543.06
2022-12-26T06:12:23.068Z,98539.81
2022-12-26T06:14:24.881Z,98536.81
2022-12-26T06:16:26.608Z,98536.53
2022-12-26T06:18:28.462Z,98537.38
2022-12-26T06:20:30.029Z,98538.75
2022-12-26T06:22:34.927Z,98527.25
2022-12-26T06:24:38.087Z,98526.69
2022-12-26T06:26:40.895Z,98523.72
2022-12-26T06:28:44.012Z,98525.34
2022-12-26T06:30:46.442Z,98524.78
2022-12-26T06:32:54.533Z,98517.44
2022-12-26T06:34:56.260Z,98518.25
2022-12-26T06:36:57.956Z,98525.13
2022-12-26T06:39:01.035Z,98519.09
2022-12-26T06:41:06.410Z,98514.72
2022-12-26T06:43:09.239Z,98518.00
2022-12-26T06:45:11.214Z,98513.63
2022-12-26T06:47:12.997Z,98516.91
2022-12-26T06:49:14.845Z,98516.38
2022-12-26T06:51:22.628Z,98520.19
2022-12-26T06:53:25.320Z,98518.53
2022-12-26T06:55:26.855Z,98522.94
2022-12-26T06:57:28.405Z,98529.22
2022-12-26T06:59:30.232Z,98527.88
2022-12-26T07:01:34.648Z,98529.50
2022-12-26T07:03:36.374Z,98534.97
2022-12-26T07:05:39.094Z,98528.69
2022-12-26T07:07:40.844Z,98530.06
2022-12-26T07:09:43.109Z,98526.22
2022-12-26T07:11:50.035Z,98536.91
2022-12-26T07:13:52.362Z,98532.81
2022-12-26T07:15:59.874Z,98539.09
2022-12-26T07:18:01.494Z,98534.97
2022-12-26T07:20:04.718Z,98536.66
2022-12-26T07:22:06.377Z,98544.03
2022-12-26T07:24:17.695Z,98542.13
2022-12-26T07:26:19.629Z,98550.88
2022-12-26T07:28:21.198Z,98547.06
2022-12-26T07:30:22.706Z,98561.84
2022-12-26T07:32:24.422Z,98567.88
2022-12-26T07:34:31.355Z,98570.06
2022-12-26T07:36:34.937Z,98572.56
2022-12-26T07:38:36.879Z,98571.19
2022-12-26T07:40:38.468Z,98572.28
2022-12-26T07:42:40.248Z,98568.72
2022-12-26T07:44:42.929Z,98572.84
2022-12-26T07:46:46.547Z,98572.84
2022-12-26T07:48:48.161Z,98565.72
2022-12-26T07:50:51.459Z,98571.22
2022-12-26T07:52:53.286Z,98561.34
2022-12-26T07:54:54.852Z,98566.00
2022-12-26T07:57:29.629Z,98568.47
2022-12-26T07:59:23.513Z,98575.88
2022-12-26T08:01:25.249Z,98566.81
2022-12-26T08:03:32.591Z,98569.56
2022-12-26T08:05:37.166Z,98566.81
2022-12-26T08:07:39.062Z,98564.09
2022-12-26T08:09:42.995Z,98570.09
2022-12-26T08:11:45.538Z,98579.16
2022-12-26T08:13:50.974Z,98570.66
2022-12-26T08:15:52.557Z,98572.31
2022-12-26T08:17:55.061Z,98573.13
2022-12-26T08:19:56.755Z,98580.25
2022-12-26T08:21:58.459Z,98573.97
2022-12-26T08:24:00.282Z,98576.13
2022-12-26T08:26:11.170Z,98582.19
2022-12-26T08:28:16.901Z,98585.47
2022-12-26T08:30:18.540Z,98590.13
2022-12-26T08:32:20.860Z,98593.41
2022-12-26T08:34:22.461Z,98600.28
2022-12-26T08:36:24.207Z,98605.75
2022-12-26T08:38:29.919Z,98597.00
2022-12-26T08:40:44.297Z,98593.16
2022-12-26T08:43:11.731Z,98607.66
2022-12-26T08:45:07.983Z,98610.16
2022-12-26T08:47:09.568Z,98608.50
2022-12-26T08:49:11.490Z,98596.44
2022-12-26T08:51:16.095Z,98604.66
2022-12-26T08:53:17.758Z,98597.81
2022-12-26T08:55:19.296Z,98611.25
2022-12-26T08:57:21.114Z,98616.72
2022-12-26T08:59:24.209Z,98611.81
2022-12-26T09:01:28.252Z,98610.69
2022-12-26T09:03:29.879Z,98600.56
2022-12-26T09:05:32.329Z,98604.69
2022-12-26T09:07:33.829Z,98604.69
2022-12-26T09:09:35.637Z,98610.69
2022-12-26T09:11:38.625Z,98612.38
2022-12-26T09:13:42.739Z,98612.94
2022-12-26T09:15:44.424Z,98621.69
2022-12-26T09:17:46.099Z,98616.75
2022-12-26T09:19:47.932Z,98618.41
2022-12-26T09:22:10.400Z,98625.28
2022-12-26T09:24:14.773Z,98626.66
2022-12-26T09:26:19.518Z,98620.34
2022-12-26T09:28:21.323Z,98622.25
2022-12-26T09:30:23.251Z,98627.47
2022-12-26T09:32:25.045Z,98623.63
2022-12-26T09:34:26.699Z,98621.69
2022-12-26T09:36:32.532Z,98632.69
2022-12-26T09:38:36.379Z,98626.34
2022-12-26T09:41:03.849Z,98630.75
2022-12-26T09:43:23.125Z,98638.16
2022-12-26T09:45:43.548Z,98638.44
2022-12-26T09:48:02.304Z,98645.84
2022-12-26T09:50:26.087Z,98650.25
2022-12-26T09:52:53.928Z,98643.94
2022-12-26T09:55:04.904Z,98643.66
2022-12-26T09:57:15.052Z,98649.41
2022-12-26T09:59:20.219Z,98651.34
2022-12-26T10:01:26.352Z,98652.16
2022-12-26T10:03:28.474Z,98666.44
2022-12-26T10:05:40.572Z,98660.09
2022-12-26T10:07:59.442Z,98656.53
2022-12-26T10:10:27.096Z,98651.34
2022-12-26T10:12:39.077Z,98646.69
2022-12-26T10:14:45.317Z,98649.41
2022-12-26T10:17:00.879Z,98660.09
2022-12-26T10:19:13.836Z,98660.94
2022-12-26T10:21:29.230Z,98666.44
2022-12-26T10:23:43.562Z,98666.44
2022-12-26T10:25:57.187Z,98664.75
2022-12-26T10:28:00.273Z,98671.91
2022-12-26T10:30:07.380Z,98671.09
2022-12-26T10:32:16.928Z,98670.25
2022-12-26T10:34:29.262Z,98667.50
2022-12-26T10:36:40.618Z,98674.09
2022-12-26T10:38:47.897Z,98670.53
2022-12-26T10:40:53.365Z,98665.88
2022-12-26T10:42:58.348Z,98667.78
2022-12-26T10:45:00.674Z,98680.44
2022-12-26T10:47:08.810Z,98681.50
2022-12-26T10:49:12.392Z,98676.56
2022-12-26T10:51:16.019Z,98683.72
2022-12-26T10:53:17.794Z,98685.34
2022-12-26T10:55:28.144Z,98680.97
2022-12-26T10:57:35.741Z,98672.75
2022-12-26T10:59:40.442Z,98663.41
2022-12-26T11:01:50.428Z,98666.13
2022-12-26T11:04:53.100Z,98675.75
2022-12-26T11:06:54.928Z,98682.34
2022-12-26T11:08:57.319Z,98680.97
2022-12-26T11:11:08.494Z,98673.00
2022-12-26T11:13:20.612Z,98677.69
2022-12-26T11:15:41.305Z,98682.59
2022-12-26T11:17:45.578Z,98682.06
2022-12-26T11:19:47.161Z,98686.72
2022-12-26T11:22:15.553Z,98678.75
2022-12-26T11:24:19.989Z,98670.25
2022-12-26T11:26:27.497Z,98678.47
2022-12-26T11:28:33.113Z,98677.09
2022-12-26T11:30:40.072Z,98686.16
2022-12-26T11:32:44.122Z,98676.84
2022-12-26T11:34:49.400Z,98672.75
2022-12-26T11:36:53.966Z,98665.06
2022-12-26T11:39:07.931Z,98675.75
2022-12-26T11:41:32.759Z,98676.03
2022-12-26T11:43:34.366Z,98673.81
2022-12-26T11:45:43.497Z,98667.78
2022-12-26T11:47:46.238Z,98663.13
2022-12-26T11:49:58.748Z,98663.41
2022-12-26T11:52:41.923Z,98649.41
2022-12-26T11:54:51.336Z,98637.63
2022-12-26T11:57:02.394Z,98651.34
2022-12-26T11:59:18.724Z,98654.63
2022-12-26T12:01:20.733Z,98655.16
2022-12-26T12:03:46.940Z,98652.72
2022-12-26T12:05:55.120Z,98634.59
2022-12-26T12:08:27.974Z,98630.47
2022-12-26T12:10:43.142Z,98643.41
2022-12-26T12:13:29.376Z,98655.72
2022-12-26T12:15:56.895Z,98637.06
2022-12-26T12:18:21.378Z,98638.44
2022-12-26T12:20:52.153Z,98649.41
2022-12-26T12:23:36.193Z,98651.34
2022-12-26T12:25:56.451Z,98653.25
2022-12-26T12:28:08.317Z,98655.75
2022-12-26T12:30:40.234Z,98647.75
2022-12-26T12:32:53.516Z,98643.66
2022-12-26T12:35:16.918Z,98644.75
2022-12-26T12:37:34.115Z,98652.41
2022-12-26T12:40:00.146Z,98653.53
2022-12-26T12:42:23.715Z,98650.50
2022-12-26T12:44:55.585Z,98644.47
2022-12-26T12:47:16.644Z,98648.59
2022-12-26T12:49:46.289Z,98655.16
2022-12-26T12:52:18.070Z,98647.75
2022-12-26T12:54:38.535Z,98640.38
2022-12-26T12:57:02.111Z,98644.19
2022-12-26T12:59:34.782Z,98656.81
2022-12-26T13:01:42.805Z,98651.06
2022-12-26T13:03:50.568Z,98653.00
2022-12-26T13:06:00.915Z,98651.34
2022-12-26T13:08:11.549Z,98653.78
2022-12-26T13:10:34.607Z,98650.50
2022-12-26T13:12:39.864Z,98643.66
2022-12-26T13:14:47.697Z,98641.19
2022-12-26T13:16:58.408Z,98632.69
2022-12-26T13:19:05.095Z,98634.03
2022-12-26T13:21:10.852Z,98643.66
2022-12-26T13:23:46.588Z,98640.91
2022-12-26T13:26:08.544Z,98648.31
2022-12-26T13:28:17.947Z,98653.53
2022-12-26T13:30:19.598Z,98640.66
2022-12-26T13:32:27.319Z,98646.41
2022-12-26T13:34:28.993Z,98636.25
2022-12-26T13:36:40.141Z,98632.41
2022-12-26T13:38:56.591Z,98634.03
2022-12-26T13:41:21.039Z,98636.78
2022-12-26T13:43:44.415Z,98640.38
2022-12-26T13:45:54.208Z,98639.28
2022-12-26T13:47:56.220Z,98645.56
2022-12-26T13:49:58.232Z,98646.38
2022-12-26T13:52:34.943Z,98655.44
2022-12-26T13:54:58.345Z,98649.41
2022-12-26T13:57:16.431Z,98652.41
2022-12-26T13:59:35.950Z,98646.13
2022-12-26T14:02:07.013Z,98649.13
2022-12-26T14:04:28.161Z,98660.94
2022-12-26T14:06:58.841Z,98657.38
2022-12-26T14:09:28.000Z,98645.03
2022-12-26T14:11:54.605Z,98643.41
2022-12-26T14:14:24.953Z,98638.69
2022-12-26T14:16:37.908Z,98638.69
2022-12-26T14:19:21.308Z,98643.09
2022-12-26T14:22:00.582Z,98647.75
2022-12-26T14:24:31.866Z,98646.94
2022-12-26T14:26:39.921Z,98646.13
2022-12-26T14:28:51.471Z,98649.13
2022-12-26T14:31:08.898Z,98640.91
2022-12-26T14:33:53.208Z,98643.94
2022-12-26T14:36:16.252Z,98632.13
2022-12-26T14:38:36.362Z,98640.38
2022-12-26T14:40:57.682Z,98643.66
2022-12-26T14:43:11.432Z,98651.88
2022-12-26T14:45:28.347Z,98645.56
2022-12-26T14:47:49.694Z,98646.69
2022-12-26T14:49:51.347Z,98640.91
2022-12-26T14:51:52.970Z,98637.63
2022-12-26T14:54:16.900Z,98639.00
2022-12-26T14:56:18.451Z,98638.69
2022-12-26T14:58:36.158Z,98640.66
2022-12-26T15:00:38.631Z,98639.81
2022-12-26T15:02:44.764Z,98649.97
2022-12-26T15:05:01.268Z,98639.53
2022-12-26T15:07:35.699Z,98649.09
2022-12-26T15:10:14.229Z,98643.38
2022-12-26T15:12:56.708Z,98636.50
2022-12-26T15:15:25.203Z,98638.66
2022-12-26T15:18:00.663Z,98636.22
2022-12-26T15:20:20.831Z,98632.91
2022-12-26T15:22:42.717Z,98629.34
2022-12-26T15:25:22.574Z,98626.88
2022-12-26T15:27:27.346Z,98635.38
2022-12-26T15:29:45.088Z,98635.38
2022-12-26T15:31:52.128Z,98650.75
2022-12-26T15:34:05.662Z,98641.97
2022-12-26T15:36:34.989Z,98642.78
2022-12-26T15:38:43.498Z,98640.84
2022-12-26T15:40:58.690Z,98639.78
2022-12-26T15:43:40.541Z,98648.53
2022-12-26T15:46:05.279Z,98654.28
2022-12-26T15:48:22.924Z,98662.50
2022-12-26T15:50:50.816Z,98649.63
2022-12-26T15:53:22.723Z,98647.41
2022-12-26T15:55:27.297Z,98640.84
2022-12-26T15:57:40.882Z,98650.72
2022-12-26T15:59:59.045Z,98670.19
2022-12-26T16:02:01.182Z,98677.03
2022-12-26T16:04:07.649Z,98658.66
2022-12-26T16:06:31.902Z,98671.53
2022-12-26T16:08:47.180Z,98664.13
2022-12-26T16:10:55.623Z,98672.06
2022-12-26T16:13:22.749Z,98671.53
2022-12-26T16:15:25.129Z,98666.59
2022-12-26T16:17:27.937Z,98670.69
2022-12-26T16:19:29.420Z,98666.59
2022-12-26T16:21:49.538Z,98663.84
2022-12-26T16:23:54.002Z,98659.19
2022-12-26T16:25:57.233Z,98664.94
2022-12-26T16:28:00.179Z,98668.25
2022-12-26T16:30:11.717Z,98674.56
2022-12-26T16:32:18.158Z,98670.16
2022-12-26T16:34:20.981Z,98670.16
2022-12-26T16:36:28.094Z,98667.69
2022-12-26T16:38:31.513Z,98663.84
2022-12-26T16:40:41.266Z,98660.31
2022-12-26T16:42:45.431Z,98666.88
2022-12-26T16:44:47.103Z,98664.94
2022-12-26T16:46:48.810Z,98669.88
2022-12-26T16:48:57.035Z,98658.34
2022-12-26T16:51:03.376Z,98663.81
2022-12-26T16:53:15.294Z,98656.44
2022-12-26T16:55:42.549Z,98645.22
2022-12-26T16:57:44.090Z,98641.09
2022-12-26T16:59:58.279Z,98646.56
2022-12-26T17:02:00.642Z,98644.63
2022-12-26T17:04:16.992Z,98645.75
2022-12-26T17:06:31.843Z,98641.63
2022-12-26T17:08:33.517Z,98653.41
2022-12-26T17:10:37.595Z,98644.63
2022-12-26T17:12:39.747Z,98634.78
2022-12-26T17:14:46.109Z,98645.97
2022-12-26T17:16:56.024Z,98644.34
2022-12-26T17:19:19.495Z,98647.63
2022-12-26T17:21:28.292Z,98643.50
2022-12-26T17:23:36.336Z,98644.59
2022-12-26T17:25:38.122Z,98650.06
2022-12-26T17:27:39.952Z,98655.56
2022-12-26T17:30:00.711Z,98653.09
2022-12-26T17:32:08.516Z,98654.47
2022-12-26T17:34:23.970Z,98652.25
2022-12-26T17:37:08.759Z,98641.31
2022-12-26T17:38:52.552Z,98642.97
2022-12-26T17:40:56.867Z,98648.97
2022-12-26T17:43:29.391Z,98643.50
2022-12-26T17:45:31.138Z,98650.63
2022-12-26T17:47:32.628Z,98644.84
2022-12-26T17:49:34.255Z,98652.78
2022-12-26T17:51:35.785Z,98654.75
2022-12-26T17:53:40.295Z,98650.88
2022-12-26T17:55:42.169Z,98654.47
2022-12-26T17:57:43.820Z,98651.72
2022-12-26T17:59:45.435Z,98647.59
2022-12-26T18:01:47.177Z,98640.22
2022-12-26T18:03:49.588Z,98643.50
2022-12-26T18:05:52.799Z,98641.03
2022-12-26T18:07:55.091Z,98654.47
2022-12-26T18:09:56.708Z,98656.66
2022-12-26T18:11:58.277Z,98669.50
2022-12-26T18:13:59.826Z,98673.09
2022-12-26T18:16:02.404Z,98676.91
2022-12-26T18:18:04.650Z,98670.34
2022-12-26T18:20:06.923Z,98681.03
2022-12-26T18:22:14.798Z,98682.94
2022-12-26T18:24:16.288Z,98679.13
2022-12-26T18:26:26.569Z,98689.53
2022-12-26T18:28:29.092Z,98688.41
2022-12-26T18:30:30.704Z,98700.47
2022-12-26T18:32:33.669Z,98711.44
2022-12-26T18:34:35.219Z,98738.84
2022-12-26T18:36:42.179Z,98735.78
2022-12-26T18:38:44.115Z,98757.47
2022-12-26T18:40:48.917Z,98770.03
2022-12-26T18:42:50.435Z,98768.13
2022-12-26T18:44:52.146Z,98762.66
2022-12-26T18:46:53.671Z,98771.41
2022-12-26T18:48:56.654Z,98777.69
2022-12-26T18:50:58.256Z,98777.97
2022-12-26T18:53:00.277Z,98768.59
2022-12-26T18:55:01.800Z,98771.06
2022-12-26T18:57:05.336Z,98771.59
2022-12-26T18:59:10.211Z,98761.72
2022-12-26T19:01:14.478Z,98763.34
2022-12-26T19:03:16.039Z,98774.81
2022-12-26T19:05:19.374Z,98764.41
2022-12-26T19:07:21.033Z,98770.41
2022-12-26T19:09:29.850Z,98781.91
2022-12-26T19:11:31.499Z,98763.81
2022-12-26T19:13:33.143Z,98774.44
2022-12-26T19:15:36.061Z,98781.56
2022-12-26T19:17:38.292Z,98781.81
2022-12-26T19:19:39.812Z,98779.59
2022-12-26T19:21:42.773Z,98778.22
2022-12-26T19:23:47.551Z,98781.75
2022-12-26T19:25:49.212Z,98791.56
2022-12-26T19:27:51.241Z,98794.00
2022-12-26T19:29:52.702Z,98790.91
2022-12-26T19:31:56.395Z,98794.19
2022-12-26T19:33:58.781Z,98794.69
2022-12-26T19:36:00.397Z,98799.59
2022-12-26T19:38:03.544Z,98796.81
2022-12-26T19:40:06.155Z,98790.78
2022-12-26T19:42:07.740Z,98776.56
2022-12-26T19:44:10.132Z,98785.84
2022-12-26T19:46:15.556Z,98804.66
2022-12-26T19:48:17.136Z,98824.59
2022-12-26T19:50:18.697Z,98819.63
2022-12-26T19:52:20.319Z,98813.88
2022-12-26T19:54:21.872Z,98802.09
2022-12-26T19:56:26.426Z,98805.13
2022-12-26T19:58:30.409Z,98793.34
2022-12-26T20:00:32.095Z,98799.31
2022-12-26T20:02:34.001Z,98796.84
2022-12-26T20:04:35.693Z,98817.91
2022-12-26T20:06:38.367Z,98824.22
2022-12-26T20:08:40.414Z,98825.00
2022-12-26T20:10:41.996Z,98825.78
2022-12-26T20:12:43.579Z,98814.28
2022-12-26T20:14:46.566Z,98812.91
2022-12-26T20:17:08.810Z,98813.41
2022-12-26T20:19:11.504Z,98805.72
2022-12-26T20:21:14.061Z,98813.09
2022-12-26T20:23:15.579Z,98823.44
2022-12-26T20:25:17.148Z,98829.19
2022-12-26T20:27:18.889Z,98835.72
2022-12-26T20:29:20.723Z,98844.75
2022-12-26T20:31:47.703Z,98845.25
2022-12-26T20:33:50.790Z,98849.34
2022-12-26T20:36:23.511Z,98865.44
2022-12-26T20:38:27.454Z,98867.63
2022-12-26T20:40:29.096Z,98877.94
2022-12-26T20:42:30.705Z,98882.03
2022-12-26T20:44:32.319Z,98883.69
2022-12-26T20:46:35.562Z,98883.69
2022-12-26T20:48:37.255Z,98887.75
2022-12-26T20:50:39.575Z,98890.75
2022-12-26T20:52:41.154Z,98888.50
2022-12-26T20:54:42.616Z,98889.59
2022-12-26T20:56:44.816Z,98895.06
2022-12-26T20:58:46.511Z,98898.63
2022-12-26T21:00:48.051Z,98908.97
2022-12-26T21:02:49.693Z,98902.94
2022-12-26T21:04:51.400Z,98911.16
2022-12-26T21:06:52.941Z,98911.38
2022-12-26T21:08:56.348Z,98917.94
2022-12-26T21:11:05.132Z,98914.03
2022-12-26T21:13:08.235Z,98923.34
2022-12-26T21:15:09.954Z,98931.53
2022-12-26T21:17:11.585Z,98935.91
2022-12-26T21:19:15.609Z,98942.97
2022-12-26T21:21:23.352Z,98942.13
2022-12-26T21:23:24.927Z,98947.59
2022-12-26T21:25:26.431Z,98941.28
2022-12-26T21:27:28.164Z,98954.47
2022-12-26T21:29:31.969Z,98952.78
2022-12-26T21:31:34.929Z,98956.63
2022-12-26T21:33:44.033Z,98949.50
2022-12-26T21:35:50.691Z,98955.78
2022-12-26T21:37:52.314Z,98975.25
2022-12-26T21:39:53.745Z,98967.63
2022-12-26T21:41:55.250Z,98976.91
2022-12-26T21:43:56.839Z,98976.91
2022-12-26T21:46:01.411Z,98974.44
2022-12-26T21:48:03.220Z,98973.59
2022-12-26T21:50:05.055Z,98981.53
2022-12-26T21:52:07.584Z,98979.63
2022-12-26T21:54:28.038Z,98973.59
2022-12-26T21:56:29.590Z,98987.25
2022-12-26T21:58:31.211Z,98991.06
2022-12-26T22:00:34.931Z,98990.25
2022-12-26T22:02:56.662Z,98992.16
2022-12-26T22:04:58.711Z,98997.28
2022-12-26T22:07:00.258Z,98999.16
2022-12-26T22:09:02.171Z,99007.38
2022-12-26T22:11:22.562Z,99003.00
2022-12-26T22:13:25.599Z,99001.34
2022-12-26T22:15:46.081Z,99000.28
2022-12-26T22:17:47.686Z,99010.63
2022-12-26T22:19:49.210Z,99012.25
2022-12-26T22:21:52.060Z,99055.97
2022-12-26T22:23:54.056Z,99055.66
2022-12-26T22:25:55.946Z,99055.66
2022-12-26T22:27:59.392Z,99060.78
2022-12-26T22:30:00.918Z,99076.59
2022-12-26T22:32:02.577Z,99072.19
2022-12-26T22:34:12.327Z,99082.81
2022-12-26T22:36:14.069Z,99083.88
2022-12-26T22:38:15.807Z,99085.19
2022-12-26T22:40:17.518Z,99093.03
2022-12-26T22:42:19.023Z,99091.63
2022-12-26T22:44:20.678Z,99108.28
2022-12-26T22:46:22.711Z,99102.47
2022-12-26T22:48:24.924Z,99107.13
2022-12-26T22:50:26.403Z,99112.59
2022-12-26T22:52:28.053Z,99114.97
2022-12-26T22:54:29.611Z,99120.69
2022-12-26T22:56:32.797Z,99123.59
2022-12-26T22:58:34.414Z,99133.13
2022-12-26T23:00:35.884Z,99139.53
2022-12-26T23:02:37.857Z,99149.66
2022-12-26T23:04:39.937Z,99148.25
2022-12-26T23:06:42.074Z,99156.66
2022-12-26T23:08:43.933Z,99156.66
2022-12-26T23:10:46.143Z,99155.25
2022-12-26T23:12:48.295Z,99169.38
2022-12-26T23:14:49.951Z,99161.69
2022-12-26T23:16:56.799Z,99172.25
2022-12-26T23:19:20.267Z,99168.94
2022-12-26T23:21:41.860Z,99182.47
2022-12-26T23:23:43.656Z,99176.44
2022-12-26T23:25:45.200Z,99182.38
2022-12-26T23:28:05.120Z,99177.38
2022-12-26T23:30:19.787Z,99183.56
2022-12-26T23:32:21.219Z,99180.47
2022-12-26T23:34:23.171Z,99182.38
2022-12-26T23:36:24.671Z,99185.59
2022-12-26T23:38:26.289Z,99187.72
2022-12-26T23:40:27.881Z,99194.47
2022-12-26T23:42:29.465Z,99189.03
2022-12-26T23:44:31.429Z,99194.16
2022-12-26T23:46:33.247Z,99198.78
2022-12-26T23:48:34.910Z,99198.19
2022-12-26T23:50:37.025Z,99224.03
2022-12-26T23:52:38.949Z,99225.94
2022-12-26T23:54:40.476Z,99239.81
2022-12-26T23:56:41.926Z,99238.16
2022-12-26T23:58:43.689Z,99245.75
